x

Georges Bank 170 Nm East Of Hyannis, Ma (44011) Wave Buoy

10:50am - Wed 1st Jul 2015 All times are EDT. -4 hours from GMT.

  • Sig Wave height 5.2ft
  • Swell Direction
  • Peak Period 8s
  • Average Period 6s
  • Wind
    11mph, 13mph gusts
  • Sea Temp 58°f
  • Air Temp 67°f
  • Sea Pressure 1012.3mb
  • Georges Bank 170 Nm East Of Hyannis, Ma
  • Georges Bank 170 Nm East Of Hyannis, Ma

More Historic Weather Station data

Upgrade to MSW Pro to gain access to the past 30 days of data for over 8000 Wavebouys and Weather Stations around the globe.

Join Pro

Comparision Forecast

View Surf forecast
   
Wed 07/01 10:50am 5ft 8s 6s 11 13 mph 1012.3mb 58f 67f
9:50am 5ft 8s 6s 11 13 mph 1012.6mb 58f 67f
8:50am 4.5ft 8s 6s 9 13 mph 1012.7mb 58f 66f
7:50am 4.5ft 8s 6s 7 9 mph 1013.6mb 58f 62f
6:50am 3.5ft 6s 6s 4 7 mph 1013.7mb 58f 60f
5:50am 4.5ft 8s 7s 4 7 mph 1013.9mb 57f 60f
4:50am 3.5ft 8s 7s 7
mph
1013.5mb 57f 60f
3:50am 4ft 8s 7s 7
mph
1013.5mb 57f 60f
2:50am 4.5ft 8s 7s 7 9 mph 1014mb 57f 60f
1:50am 4ft 8s 7s 9
mph
1014.2mb 57f 60f
12:50am 4ft 8s 7s 7 9 mph 1015.3mb 58f 61f
Tue 06/30 11:50pm 4ft 8s 6s 9
mph
1015.8mb 58f 62f
10:50pm 4ft 8s 6s 7
mph
1016.4mb 59f 62f
9:50pm 4.5ft 8s 6s 9
mph
1017.1mb 60f 61f
8:50pm 4ft 8s 6s 7
mph
1017.1mb 61f 63f
7:50pm 4.5ft 8s 6s 2 4 mph 1017.2mb 61f 64f
6:50pm 5ft 8s 6s 7 9 mph 1016.8mb 61f 63f
5:50pm 5ft 7s 6s  -  2 mph 1015.7mb 61f 64f
4:50pm 6ft 7s 6s  -  mph 1016.2mb 60f 65f
3:50pm 6ft 8s 7s 4 7 mph 1017mb 61f 64f
2:50pm 6ft 8s 7s 4
mph
1017.4mb 60f 64f
1:50pm 6.5ft 9s 7s 2 4 mph 1017.3mb 60f 64f
12:50pm 6ft 9s 7s 2
mph
1017.5mb 59f 65f
11:50am 6ft 9s 7s 2 4 mph 1017.4mb 58f 65f
10:50am 5ft 8s 7s 4 7 mph 1017.5mb 58f 64f
9:50am 5ft 8s 6s 4 7 mph 1017.6mb 58f 65f
8:50am 5ft 9s 7s 7
mph
1017.7mb 58f 66f
7:50am 5.5ft 9s 7s 7
mph
1017.5mb 57f 65f
6:50am 5ft 10s 6s 7 9 mph 1017.3mb 56f 62f
5:50am 6ft 9s 6s 7
mph
1017mb 57f 62f
4:50am 6ft 9s 6s 4 7 mph 1016.7mb 57f 61f
3:50am 6ft 8s 6s 7
mph
1016.7mb 57f 61f
2:50am 7ft 7s 7s 7 9 mph 1016.7mb 57f 60f
1:50am 6.5ft 8s 7s 7 9 mph 1016.2mb 57f 60f
12:50am 8ft 9s 7s 7 9 mph 1016.1mb 57f 61f
Mon 06/29 11:50pm 8.5ft 10s 7s 9 11 mph 1016.2mb 57f 60f
10:50pm 8ft 10s 7s 11 13 mph 1016mb 58f 62f
9:50pm 8ft 9s 7s 9 11 mph 1015.7mb 58f 61f
8:50pm 7.5ft 9s 7s 9 11 mph 1015.3mb 58f 61f
7:50pm 7ft 8s 7s 9
mph
1014.8mb 58f 61f
6:50pm 8ft 9s 7s 7 9 mph 1014.4mb 59f 61f
5:50pm 8.5ft 10s 7s 7 9 mph 1013.8mb 59f 62f
4:50pm 8ft 9s 7s 7 9 mph 1013.6mb 59f 62f
3:50pm 9ft 10s 7s 9
mph
1013.3mb 59f 63f
2:50pm 9ft 9s 7s 7 9 mph 1013.1mb 59f 63f
1:50pm 7.5ft 10s 7s 7 9 mph 1013mb 58f 63f
12:50pm 8ft 10s 7s 7 9 mph 1012.8mb 57f 63f
11:50am 9ft 10s 8s 9 11 mph 1012.7mb 57f 62f
10:50am 8ft 9s 7s 4 7 mph 1012.2mb 56f 59f
9:50am 9.5ft 10s 8s 4 7 mph 1012.2mb 55f 57f
8:50am 8.5ft 10s 7s 4 7 mph 1012.2mb 55f 56f
7:50am 9ft 9s 7s 7 9 mph 1011.7mb 55f 56f
6:50am 10ft 9s 7s 7 9 mph 1011.1mb 55f 56f
5:50am 10.5ft 10s 7s 7 9 mph 1010.6mb 55f 56f
4:50am 12ft 10s 8s 7 11 mph 1009.9mb 55f 56f
3:50am 13ft 10s 8s 9 11 mph 1009.3mb 55f 57f
2:50am 12ft 10s 8s 11 13 mph 1008.8mb 56f 57f
1:50am 10.5ft 10s 8s 11 16 mph 1008.5mb 56f 58f
12:50am 13ft 10s 8s 13 18 mph 1007.9mb 56f 61f
Sun 06/28 11:50pm 11ft 8s 8s 13 18 mph 1007.8mb 56f 61f
10:50pm 11ft 9s 8s 16 18 mph 1007.3mb 55f 63f
9:50pm 11ft 9s 8s 16
mph
1007.2mb 55f 63f
8:50pm 10ft 8s 7s 11 13 mph 1006.8mb 55f 64f
7:50pm 8ft 9s 7s 11 13 mph 1006.5mb 55f 65f
6:50pm 8ft 9s 7s 11 13 mph 1005.8mb 55f 65f
5:50pm 9.5ft 9s 7s 16 18 mph 1005.3mb 56f 65f
4:50pm 10ft 9s 7s 16 20 mph 1005.1mb 56f 66f
3:50pm 11ft 10s 7s 18 20 mph 1004.4mb 56f 67f
2:50pm 12.5ft 9s 7s 25 27 mph 1004.5mb 56f 68f
1:50pm 12.5ft 9s 7s 29 34 mph 1003.9mb 56f 68f
12:50pm 14ft 8s 7s 22 25 mph 1005.9mb 56f 66f
11:50am 15.5ft 9s 7s 25 34 mph 1007.5mb 56f 66f
10:50am 13ft 8s 7s 36 40 mph 1008.4mb 56f 66f
9:50am 11ft 8s 6s 29 36 mph 1010.7mb 56f 64f
8:50am 10ft 8s 6s 31 36 mph 1011.7mb 56f 64f
7:50am 8.5ft 7s 6s 31 36 mph 1013mb 56f 64f
6:50am 8ft 7s 6s 27 34 mph 1014.4mb 56f 63f
5:50am 6.5ft 7s 5s 25 29 mph 1015.7mb 57f 64f
4:50am 6ft 6s 5s 22 25 mph 1016.1mb 57f 64f
3:50am 5.5ft 5s 5s 20 22 mph 1017mb 57f 64f
2:50am 4.5ft 8s 5s 18 20 mph 1017.8mb 57f 64f
1:50am 4.5ft 7s 5s 16 20 mph 1018.7mb 57f 64f
12:50am 4ft 8s 5s 16 18 mph 1020mb 57f 64f
Sat 06/27 11:50pm 4ft 8s 6s 13
mph
1020.8mb 57f 64f
10:50pm 4ft 8s 6s 11 13 mph 1021.3mb 57f 63f
9:50pm 4ft 9s 6s 9 11 mph 1022.1mb 57f 59f
8:50pm 4ft 8s 6s 13
mph
1021.6mb 57f 59f
7:50pm 3.5ft 8s 6s 13
mph
1022.1mb 57f 59f
6:50pm 3.5ft 7s 6s 11 13 mph 1022.2mb 57f 58f
5:50pm 3.5ft 7s 6s 11 13 mph 1022mb 57f 59f
4:50pm 4.5ft 8s 6s 11 13 mph 1021.5mb 57f 59f
3:50pm 4ft 7s 6s 11
mph
1021.7mb 57f 59f